sensor_id;sensor_type;location;lat;lon;timestamp;P1;durP1;ratioP1;P2;durP2;ratioP2
12334;SDS011;6233;51.560;9.986;2022-12-01T00:01:53;53.00;;;30.03;;
12334;SDS011;6233;51.560;9.986;2022-12-01T00:04:54;49.87;;;29.33;;
12334;SDS011;6233;51.560;9.986;2022-12-01T00:07:56;55.33;;;29.80;;
12334;SDS011;6233;51.560;9.986;2022-12-01T00:11:06;52.07;;;31.03;;
12334;SDS011;6233;51.560;9.986;2022-12-01T00:14:14;57.20;;;31.00;;
12334;SDS011;6233;51.560;9.986;2022-12-01T00:17:16;51.03;;;30.10;;
12334;SDS011;6233;51.560;9.986;2022-12-01T00:20:18;49.83;;;29.03;;
12334;SDS011;6233;51.560;9.986;2022-12-01T00:23:19;51.57;;;28.67;;
12334;SDS011;6233;51.560;9.986;2022-12-01T00:26:22;57.77;;;31.97;;
12334;SDS011;6233;51.560;9.986;2022-12-01T00:29:24;52.50;;;30.17;;
12334;SDS011;6233;51.560;9.986;2022-12-01T00:32:28;54.67;;;31.13;;
12334;SDS011;6233;51.560;9.986;2022-12-01T00:35:30;54.40;;;31.80;;
12334;SDS011;6233;51.560;9.986;2022-12-01T00:38:32;59.93;;;31.77;;
12334;SDS011;6233;51.560;9.986;2022-12-01T00:41:34;57.40;;;32.10;;
12334;SDS011;6233;51.560;9.986;2022-12-01T00:44:36;53.27;;;30.97;;
12334;SDS011;6233;51.560;9.986;2022-12-01T00:47:37;56.57;;;30.83;;
12334;SDS011;6233;51.560;9.986;2022-12-01T00:50:39;51.93;;;29.80;;
12334;SDS011;6233;51.560;9.986;2022-12-01T00:53:41;54.20;;;30.07;;
12334;SDS011;6233;51.560;9.986;2022-12-01T00:56:43;51.20;;;29.70;;
12334;SDS011;6233;51.560;9.986;2022-12-01T00:59:44;52.77;;;32.67;;
12334;SDS011;6233;51.560;9.986;2022-12-01T01:02:46;53.27;;;29.90;;
12334;SDS011;6233;51.560;9.986;2022-12-01T01:05:48;53.07;;;30.10;;
12334;SDS011;6233;51.560;9.986;2022-12-01T01:08:50;54.43;;;31.03;;
12334;SDS011;6233;51.560;9.986;2022-12-01T01:11:52;52.27;;;30.90;;
12334;SDS011;6233;51.560;9.986;2022-12-01T01:14:54;54.67;;;29.17;;
12334;SDS011;6233;51.560;9.986;2022-12-01T01:17:55;53.33;;;30.33;;
12334;SDS011;6233;51.560;9.986;2022-12-01T01:20:58;54.70;;;30.97;;
12334;SDS011;6233;51.560;9.986;2022-12-01T01:24:01;49.87;;;29.13;;
12334;SDS011;6233;51.560;9.986;2022-12-01T01:27:03;48.43;;;28.87;;
12334;SDS011;6233;51.560;9.986;2022-12-01T01:30:06;49.20;;;27.73;;
12334;SDS011;6233;51.560;9.986;2022-12-01T01:33:08;48.80;;;29.03;;
12334;SDS011;6233;51.560;9.986;2022-12-01T01:36:10;50.30;;;30.33;;
12334;SDS011;6233;51.560;9.986;2022-12-01T01:39:12;49.60;;;29.73;;
12334;SDS011;6233;51.560;9.986;2022-12-01T01:42:17;47.57;;;28.20;;
12334;SDS011;6233;51.560;9.986;2022-12-01T01:45:20;51.67;;;30.50;;
12334;SDS011;6233;51.560;9.986;2022-12-01T01:48:24;54.03;;;30.17;;
12334;SDS011;6233;51.560;9.986;2022-12-01T01:51:30;51.70;;;29.03;;
12334;SDS011;6233;51.560;9.986;2022-12-01T01:54:38;49.67;;;28.93;;
12334;SDS011;6233;51.560;9.986;2022-12-01T01:57:44;48.37;;;28.83;;
12334;SDS011;6233;51.560;9.986;2022-12-01T02:00:46;48.63;;;27.67;;
12334;SDS011;6233;51.560;9.986;2022-12-01T02:03:49;47.77;;;29.20;;
12334;SDS011;6233;51.560;9.986;2022-12-01T02:06:54;47.23;;;28.13;;
12334;SDS011;6233;51.560;9.986;2022-12-01T02:09:56;48.47;;;27.93;;
12334;SDS011;6233;51.560;9.986;2022-12-01T02:29:42;42.47;;;25.43;;
12334;SDS011;6233;51.560;9.986;2022-12-01T02:33:23;41.53;;;25.13;;
12334;SDS011;6233;51.560;9.986;2022-12-01T02:36:33;44.77;;;26.80;;
12334;SDS011;6233;51.560;9.986;2022-12-01T02:40:02;43.20;;;26.50;;
12334;SDS011;6233;51.560;9.986;2022-12-01T02:46:38;43.17;;;26.30;;
12334;SDS011;6233;51.560;9.986;2022-12-01T02:49:47;41.23;;;24.77;;
12334;SDS011;6233;51.560;9.986;2022-12-01T02:52:51;45.17;;;25.17;;
12334;SDS011;6233;51.560;9.986;2022-12-01T02:55:55;40.73;;;24.97;;
12334;SDS011;6233;51.560;9.986;2022-12-01T02:58:58;41.50;;;25.07;;
12334;SDS011;6233;51.560;9.986;2022-12-01T03:02:44;40.10;;;24.70;;
12334;SDS011;6233;51.560;9.986;2022-12-01T03:05:51;37.10;;;22.53;;
12334;SDS011;6233;51.560;9.986;2022-12-01T03:12:21;35.47;;;20.97;;
12334;SDS011;6233;51.560;9.986;2022-12-01T03:18:58;29.00;;;19.57;;
12334;SDS011;6233;51.560;9.986;2022-12-01T03:22:14;28.93;;;19.13;;
12334;SDS011;6233;51.560;9.986;2022-12-01T03:25:40;31.53;;;19.07;;
12334;SDS011;6233;51.560;9.986;2022-12-01T03:28:45;28.17;;;18.40;;
12334;SDS011;6233;51.560;9.986;2022-12-01T03:31:51;29.27;;;18.20;;
12334;SDS011;6233;51.560;9.986;2022-12-01T03:35:03;31.67;;;19.63;;
12334;SDS011;6233;51.560;9.986;2022-12-01T03:38:16;28.20;;;17.67;;
12334;SDS011;6233;51.560;9.986;2022-12-01T03:41:23;27.60;;;18.40;;
12334;SDS011;6233;51.560;9.986;2022-12-01T03:44:34;28.47;;;18.30;;
12334;SDS011;6233;51.560;9.986;2022-12-01T03:47:42;27.77;;;17.87;;
12334;SDS011;6233;51.560;9.986;2022-12-01T03:50:52;26.63;;;18.07;;
12334;SDS011;6233;51.560;9.986;2022-12-01T03:54:17;27.23;;;16.53;;
12334;SDS011;6233;51.560;9.986;2022-12-01T03:57:30;27.93;;;17.13;;
12334;SDS011;6233;51.560;9.986;2022-12-01T04:00:36;26.73;;;16.83;;
12334;SDS011;6233;51.560;9.986;2022-12-01T04:03:39;26.63;;;17.27;;
12334;SDS011;6233;51.560;9.986;2022-12-01T04:06:41;26.03;;;17.47;;
12334;SDS011;6233;51.560;9.986;2022-12-01T04:09:46;24.70;;;16.30;;
12334;SDS011;6233;51.560;9.986;2022-12-01T04:12:48;21.90;;;16.33;;
12334;SDS011;6233;51.560;9.986;2022-12-01T04:15:50;22.17;;;15.00;;
12334;SDS011;6233;51.560;9.986;2022-12-01T04:18:54;25.60;;;16.13;;
12334;SDS011;6233;51.560;9.986;2022-12-01T04:21:56;23.20;;;15.67;;
12334;SDS011;6233;51.560;9.986;2022-12-01T04:24:57;23.87;;;16.00;;
12334;SDS011;6233;51.560;9.986;2022-12-01T04:27:59;24.43;;;15.60;;
12334;SDS011;6233;51.560;9.986;2022-12-01T04:31:04;28.80;;;16.73;;
12334;SDS011;6233;51.560;9.986;2022-12-01T04:34:06;24.83;;;16.33;;
12334;SDS011;6233;51.560;9.986;2022-12-01T04:37:08;24.80;;;16.10;;
12334;SDS011;6233;51.560;9.986;2022-12-01T04:40:10;27.03;;;17.77;;
12334;SDS011;6233;51.560;9.986;2022-12-01T04:43:12;25.73;;;16.93;;
12334;SDS011;6233;51.560;9.986;2022-12-01T04:46:14;25.77;;;17.07;;
12334;SDS011;6233;51.560;9.986;2022-12-01T04:49:19;28.67;;;18.03;;
12334;SDS011;6233;51.560;9.986;2022-12-01T04:52:21;31.20;;;19.50;;
12334;SDS011;6233;51.560;9.986;2022-12-01T04:55:30;32.57;;;19.20;;
12334;SDS011;6233;51.560;9.986;2022-12-01T04:58:37;29.13;;;19.17;;
12334;SDS011;6233;51.560;9.986;2022-12-01T05:01:38;28.53;;;17.93;;
12334;SDS011;6233;51.560;9.986;2022-12-01T05:04:40;33.90;;;20.27;;
12334;SDS011;6233;51.560;9.986;2022-12-01T05:07:42;29.40;;;18.33;;
12334;SDS011;6233;51.560;9.986;2022-12-01T05:10:44;29.40;;;17.30;;
12334;SDS011;6233;51.560;9.986;2022-12-01T05:13:47;27.77;;;18.07;;
12334;SDS011;6233;51.560;9.986;2022-12-01T05:16:49;30.13;;;18.63;;
12334;SDS011;6233;51.560;9.986;2022-12-01T05:19:51;26.77;;;17.77;;
12334;SDS011;6233;51.560;9.986;2022-12-01T05:23:11;31.13;;;19.00;;
12334;SDS011;6233;51.560;9.986;2022-12-01T05:26:17;28.00;;;17.77;;
12334;SDS011;6233;51.560;9.986;2022-12-01T05:29:19;27.30;;;17.40;;
12334;SDS011;6233;51.560;9.986;2022-12-01T05:32:20;30.20;;;18.80;;
12334;SDS011;6233;51.560;9.986;2022-12-01T05:35:22;29.90;;;18.53;;
12334;SDS011;6233;51.560;9.986;2022-12-01T05:38:24;31.13;;;18.33;;
12334;SDS011;6233;51.560;9.986;2022-12-01T05:41:25;28.70;;;18.83;;
12334;SDS011;6233;51.560;9.986;2022-12-01T05:44:27;33.07;;;19.67;;
12334;SDS011;6233;51.560;9.986;2022-12-01T05:47:29;31.93;;;19.57;;
12334;SDS011;6233;51.560;9.986;2022-12-01T05:50:30;34.60;;;20.80;;
12334;SDS011;6233;51.560;9.986;2022-12-01T05:53:32;31.50;;;19.90;;
12334;SDS011;6233;51.560;9.986;2022-12-01T05:56:34;31.97;;;18.63;;
12334;SDS011;6233;51.560;9.986;2022-12-01T05:59:36;30.77;;;20.13;;
12334;SDS011;6233;51.560;9.986;2022-12-01T06:02:38;30.87;;;17.97;;
12334;SDS011;6233;51.560;9.986;2022-12-01T06:05:40;33.93;;;20.20;;
12334;SDS011;6233;51.560;9.986;2022-12-01T06:08:42;29.53;;;18.90;;
12334;SDS011;6233;51.560;9.986;2022-12-01T06:11:44;34.47;;;19.10;;
12334;SDS011;6233;51.560;9.986;2022-12-01T06:14:51;33.70;;;19.63;;
12334;SDS011;6233;51.560;9.986;2022-12-01T06:17:53;33.83;;;20.87;;
12334;SDS011;6233;51.560;9.986;2022-12-01T06:20:54;32.37;;;20.57;;
12334;SDS011;6233;51.560;9.986;2022-12-01T06:23:56;33.30;;;20.03;;
12334;SDS011;6233;51.560;9.986;2022-12-01T06:26:58;33.63;;;20.10;;
12334;SDS011;6233;51.560;9.986;2022-12-01T06:29:59;34.30;;;19.93;;
12334;SDS011;6233;51.560;9.986;2022-12-01T06:33:01;35.20;;;20.23;;
12334;SDS011;6233;51.560;9.986;2022-12-01T06:36:04;33.07;;;19.20;;
12334;SDS011;6233;51.560;9.986;2022-12-01T06:39:07;32.33;;;20.27;;
12334;SDS011;6233;51.560;9.986;2022-12-01T06:42:10;33.07;;;19.50;;
12334;SDS011;6233;51.560;9.986;2022-12-01T06:45:12;34.30;;;19.70;;
12334;SDS011;6233;51.560;9.986;2022-12-01T06:48:14;33.10;;;18.97;;
12334;SDS011;6233;51.560;9.986;2022-12-01T06:51:15;36.43;;;22.27;;
12334;SDS011;6233;51.560;9.986;2022-12-01T06:54:17;33.90;;;20.67;;
12334;SDS011;6233;51.560;9.986;2022-12-01T06:57:19;40.70;;;25.17;;
12334;SDS011;6233;51.560;9.986;2022-12-01T07:00:21;34.37;;;20.17;;
12334;SDS011;6233;51.560;9.986;2022-12-01T07:03:22;33.43;;;20.63;;
12334;SDS011;6233;51.560;9.986;2022-12-01T07:06:25;35.43;;;21.10;;
12334;SDS011;6233;51.560;9.986;2022-12-01T07:09:27;43.60;;;25.93;;
12334;SDS011;6233;51.560;9.986;2022-12-01T07:12:29;37.70;;;22.33;;
12334;SDS011;6233;51.560;9.986;2022-12-01T07:15:31;37.00;;;21.83;;
12334;SDS011;6233;51.560;9.986;2022-12-01T07:18:34;34.77;;;20.30;;
12334;SDS011;6233;51.560;9.986;2022-12-01T07:21:37;38.20;;;22.17;;
12334;SDS011;6233;51.560;9.986;2022-12-01T07:24:38;34.80;;;21.30;;
12334;SDS011;6233;51.560;9.986;2022-12-01T07:27:40;34.23;;;20.57;;
12334;SDS011;6233;51.560;9.986;2022-12-01T07:30:42;32.03;;;19.97;;
12334;SDS011;6233;51.560;9.986;2022-12-01T07:33:44;36.37;;;20.90;;
12334;SDS011;6233;51.560;9.986;2022-12-01T07:36:45;35.27;;;21.27;;
12334;SDS011;6233;51.560;9.986;2022-12-01T07:39:47;36.23;;;21.37;;
12334;SDS011;6233;51.560;9.986;2022-12-01T07:42:49;33.13;;;19.70;;
12334;SDS011;6233;51.560;9.986;2022-12-01T07:45:51;37.47;;;20.93;;
12334;SDS011;6233;51.560;9.986;2022-12-01T07:48:53;37.33;;;21.23;;
12334;SDS011;6233;51.560;9.986;2022-12-01T07:51:55;36.40;;;21.07;;
12334;SDS011;6233;51.560;9.986;2022-12-01T07:54:57;35.73;;;20.17;;
12334;SDS011;6233;51.560;9.986;2022-12-01T07:57:59;33.43;;;19.33;;
12334;SDS011;6233;51.560;9.986;2022-12-01T08:01:04;35.47;;;21.17;;
12334;SDS011;6233;51.560;9.986;2022-12-01T08:04:16;31.90;;;19.30;;
12334;SDS011;6233;51.560;9.986;2022-12-01T08:07:18;33.43;;;18.00;;
12334;SDS011;6233;51.560;9.986;2022-12-01T08:10:19;32.30;;;18.80;;
12334;SDS011;6233;51.560;9.986;2022-12-01T08:13:21;33.23;;;18.80;;
12334;SDS011;6233;51.560;9.986;2022-12-01T08:16:23;28.97;;;17.97;;
12334;SDS011;6233;51.560;9.986;2022-12-01T08:19:25;35.53;;;20.93;;
12334;SDS011;6233;51.560;9.986;2022-12-01T08:22:29;31.63;;;19.03;;
12334;SDS011;6233;51.560;9.986;2022-12-01T08:25:31;36.00;;;19.60;;
12334;SDS011;6233;51.560;9.986;2022-12-01T08:28:35;36.47;;;19.57;;
12334;SDS011;6233;51.560;9.986;2022-12-01T08:31:47;30.03;;;18.67;;
12334;SDS011;6233;51.560;9.986;2022-12-01T08:34:48;33.57;;;18.50;;
12334;SDS011;6233;51.560;9.986;2022-12-01T08:37:53;34.10;;;19.73;;
12334;SDS011;6233;51.560;9.986;2022-12-01T08:40:59;35.00;;;19.67;;
12334;SDS011;6233;51.560;9.986;2022-12-01T08:44:02;30.93;;;18.17;;
12334;SDS011;6233;51.560;9.986;2022-12-01T08:47:13;33.93;;;19.70;;
12334;SDS011;6233;51.560;9.986;2022-12-01T08:50:19;33.93;;;19.97;;
12334;SDS011;6233;51.560;9.986;2022-12-01T08:53:20;30.93;;;18.77;;
12334;SDS011;6233;51.560;9.986;2022-12-01T08:56:23;29.37;;;17.83;;
12334;SDS011;6233;51.560;9.986;2022-12-01T08:59:27;32.40;;;19.37;;
12334;SDS011;6233;51.560;9.986;2022-12-01T09:02:29;36.13;;;20.60;;
12334;SDS011;6233;51.560;9.986;2022-12-01T09:05:32;34.43;;;18.47;;
12334;SDS011;6233;51.560;9.986;2022-12-01T09:08:34;34.13;;;19.17;;
12334;SDS011;6233;51.560;9.986;2022-12-01T09:11:36;33.73;;;19.40;;
12334;SDS011;6233;51.560;9.986;2022-12-01T09:14:39;31.47;;;19.27;;
12334;SDS011;6233;51.560;9.986;2022-12-01T09:17:42;29.00;;;18.67;;
12334;SDS011;6233;51.560;9.986;2022-12-01T09:20:44;29.90;;;17.60;;
12334;SDS011;6233;51.560;9.986;2022-12-01T09:23:45;29.57;;;16.93;;
12334;SDS011;6233;51.560;9.986;2022-12-01T09:30:16;30.43;;;16.80;;
12334;SDS011;6233;51.560;9.986;2022-12-01T09:33:18;29.67;;;18.67;;
12334;SDS011;6233;51.560;9.986;2022-12-01T09:36:20;28.10;;;17.07;;
12334;SDS011;6233;51.560;9.986;2022-12-01T09:39:21;27.77;;;16.37;;
12334;SDS011;6233;51.560;9.986;2022-12-01T09:42:23;29.23;;;17.83;;
12334;SDS011;6233;51.560;9.986;2022-12-01T09:45:35;26.53;;;17.27;;
12334;SDS011;6233;51.560;9.986;2022-12-01T09:48:44;29.87;;;17.30;;
12334;SDS011;6233;51.560;9.986;2022-12-01T09:51:46;28.07;;;16.93;;
12334;SDS011;6233;51.560;9.986;2022-12-01T09:54:49;30.13;;;17.70;;
12334;SDS011;6233;51.560;9.986;2022-12-01T09:57:53;25.13;;;15.57;;
12334;SDS011;6233;51.560;9.986;2022-12-01T10:00:56;27.80;;;17.50;;
12334;SDS011;6233;51.560;9.986;2022-12-01T10:04:01;30.13;;;17.87;;
12334;SDS011;6233;51.560;9.986;2022-12-01T10:08:19;29.00;;;17.57;;
12334;SDS011;6233;51.560;9.986;2022-12-01T10:11:14;27.07;;;16.27;;
12334;SDS011;6233;51.560;9.986;2022-12-01T10:14:38;24.43;;;15.43;;
12334;SDS011;6233;51.560;9.986;2022-12-01T10:34:33;25.43;;;14.93;;
12334;SDS011;6233;51.560;9.986;2022-12-01T10:37:37;29.67;;;17.33;;
12334;SDS011;6233;51.560;9.986;2022-12-01T10:40:40;23.50;;;15.13;;
12334;SDS011;6233;51.560;9.986;2022-12-01T10:43:45;24.50;;;15.13;;
12334;SDS011;6233;51.560;9.986;2022-12-01T10:46:54;26.87;;;15.33;;
12334;SDS011;6233;51.560;9.986;2022-12-01T10:49:56;26.60;;;16.33;;
12334;SDS011;6233;51.560;9.986;2022-12-01T10:53:00;24.43;;;15.83;;
12334;SDS011;6233;51.560;9.986;2022-12-01T10:56:09;27.17;;;15.83;;
12334;SDS011;6233;51.560;9.986;2022-12-01T11:02:53;27.63;;;16.07;;
12334;SDS011;6233;51.560;9.986;2022-12-01T11:05:56;27.60;;;16.40;;
12334;SDS011;6233;51.560;9.986;2022-12-01T11:09:03;29.30;;;16.90;;
12334;SDS011;6233;51.560;9.986;2022-12-01T11:12:12;26.00;;;15.07;;
12334;SDS011;6233;51.560;9.986;2022-12-01T11:15:20;29.90;;;15.67;;
12334;SDS011;6233;51.560;9.986;2022-12-01T11:18:28;24.10;;;15.10;;
12334;SDS011;6233;51.560;9.986;2022-12-01T11:21:36;25.43;;;16.10;;
12334;SDS011;6233;51.560;9.986;2022-12-01T11:27:53;25.53;;;15.43;;
12334;SDS011;6233;51.560;9.986;2022-12-01T11:31:02;27.57;;;15.43;;
12334;SDS011;6233;51.560;9.986;2022-12-01T11:34:20;23.83;;;16.00;;
12334;SDS011;6233;51.560;9.986;2022-12-01T11:37:27;24.50;;;15.33;;
12334;SDS011;6233;51.560;9.986;2022-12-01T11:40:43;24.47;;;15.47;;
12334;SDS011;6233;51.560;9.986;2022-12-01T11:43:47;19.90;;;14.50;;
12334;SDS011;6233;51.560;9.986;2022-12-01T11:47:18;24.13;;;16.07;;
12334;SDS011;6233;51.560;9.986;2022-12-01T11:50:25;24.53;;;15.10;;
12334;SDS011;6233;51.560;9.986;2022-12-01T11:53:42;25.70;;;16.33;;
12334;SDS011;6233;51.560;9.986;2022-12-01T11:56:45;25.50;;;15.50;;
12334;SDS011;6233;51.560;9.986;2022-12-01T12:00:11;23.67;;;15.23;;
12334;SDS011;6233;51.560;9.986;2022-12-01T12:03:32;23.93;;;14.13;;
12334;SDS011;6233;51.560;9.986;2022-12-01T12:07:03;24.53;;;14.77;;
12334;SDS011;6233;51.560;9.986;2022-12-01T12:10:36;22.43;;;14.30;;
12334;SDS011;6233;51.560;9.986;2022-12-01T12:20:28;23.63;;;13.77;;
12334;SDS011;6233;51.560;9.986;2022-12-01T12:27:06;23.90;;;14.63;;
12334;SDS011;6233;51.560;9.986;2022-12-01T12:30:22;23.20;;;14.53;;
12334;SDS011;6233;51.560;9.986;2022-12-01T12:36:47;22.47;;;13.67;;
12334;SDS011;6233;51.560;9.986;2022-12-01T12:43:23;22.97;;;13.77;;
12334;SDS011;6233;51.560;9.986;2022-12-01T12:46:33;20.80;;;13.57;;
12334;SDS011;6233;51.560;9.986;2022-12-01T12:50:01;20.87;;;13.63;;
12334;SDS011;6233;51.560;9.986;2022-12-01T12:53:08;22.83;;;14.03;;
12334;SDS011;6233;51.560;9.986;2022-12-01T12:56:16;21.77;;;12.83;;
12334;SDS011;6233;51.560;9.986;2022-12-01T12:59:24;20.67;;;13.30;;
12334;SDS011;6233;51.560;9.986;2022-12-01T13:02:45;19.97;;;13.27;;
12334;SDS011;6233;51.560;9.986;2022-12-01T13:05:57;21.60;;;12.60;;
12334;SDS011;6233;51.560;9.986;2022-12-01T13:09:25;20.67;;;12.10;;
12334;SDS011;6233;51.560;9.986;2022-12-01T13:12:28;20.77;;;12.30;;
12334;SDS011;6233;51.560;9.986;2022-12-01T13:15:32;19.23;;;12.67;;
12334;SDS011;6233;51.560;9.986;2022-12-01T13:18:38;19.43;;;12.07;;
12334;SDS011;6233;51.560;9.986;2022-12-01T13:21:45;16.97;;;11.43;;
12334;SDS011;6233;51.560;9.986;2022-12-01T13:24:49;19.83;;;12.00;;
12334;SDS011;6233;51.560;9.986;2022-12-01T13:27:51;20.67;;;12.57;;
12334;SDS011;6233;51.560;9.986;2022-12-01T13:31:27;21.63;;;13.00;;
12334;SDS011;6233;51.560;9.986;2022-12-01T13:34:41;21.10;;;13.50;;
12334;SDS011;6233;51.560;9.986;2022-12-01T13:37:48;19.63;;;13.37;;
12334;SDS011;6233;51.560;9.986;2022-12-01T13:44:40;20.30;;;12.57;;
12334;SDS011;6233;51.560;9.986;2022-12-01T13:47:51;21.53;;;13.20;;
12334;SDS011;6233;51.560;9.986;2022-12-01T13:50:55;21.60;;;13.30;;
12334;SDS011;6233;51.560;9.986;2022-12-01T13:57:10;25.10;;;15.00;;
12334;SDS011;6233;51.560;9.986;2022-12-01T14:09:47;20.60;;;12.70;;
12334;SDS011;6233;51.560;9.986;2022-12-01T14:12:51;24.00;;;14.00;;
12334;SDS011;6233;51.560;9.986;2022-12-01T14:15:57;23.70;;;14.43;;
12334;SDS011;6233;51.560;9.986;2022-12-01T14:19:01;24.93;;;13.87;;
12334;SDS011;6233;51.560;9.986;2022-12-01T14:22:05;26.17;;;16.17;;
12334;SDS011;6233;51.560;9.986;2022-12-01T14:25:28;24.13;;;14.73;;
12334;SDS011;6233;51.560;9.986;2022-12-01T14:29:05;22.73;;;14.63;;
12334;SDS011;6233;51.560;9.986;2022-12-01T14:35:00;25.53;;;14.70;;
12334;SDS011;6233;51.560;9.986;2022-12-01T14:38:05;21.87;;;14.90;;
12334;SDS011;6233;51.560;9.986;2022-12-01T14:41:19;22.93;;;14.10;;
12334;SDS011;6233;51.560;9.986;2022-12-01T14:44:34;23.97;;;14.23;;
12334;SDS011;6233;51.560;9.986;2022-12-01T14:47:46;22.87;;;14.20;;
12334;SDS011;6233;51.560;9.986;2022-12-01T14:50:59;24.43;;;14.30;;
12334;SDS011;6233;51.560;9.986;2022-12-01T14:54:19;23.07;;;14.20;;
12334;SDS011;6233;51.560;9.986;2022-12-01T14:57:31;25.20;;;14.57;;
12334;SDS011;6233;51.560;9.986;2022-12-01T15:00:48;24.83;;;15.10;;
12334;SDS011;6233;51.560;9.986;2022-12-01T15:04:14;25.27;;;14.60;;
12334;SDS011;6233;51.560;9.986;2022-12-01T15:07:19;27.43;;;15.33;;
12334;SDS011;6233;51.560;9.986;2022-12-01T15:10:23;26.23;;;15.97;;
12334;SDS011;6233;51.560;9.986;2022-12-01T15:13:28;24.93;;;15.63;;
12334;SDS011;6233;51.560;9.986;2022-12-01T15:16:38;24.83;;;14.77;;
12334;SDS011;6233;51.560;9.986;2022-12-01T15:19:41;27.13;;;16.00;;
12334;SDS011;6233;51.560;9.986;2022-12-01T15:22:44;26.83;;;15.97;;
12334;SDS011;6233;51.560;9.986;2022-12-01T15:25:46;28.53;;;15.93;;
12334;SDS011;6233;51.560;9.986;2022-12-01T15:28:47;27.87;;;16.07;;
12334;SDS011;6233;51.560;9.986;2022-12-01T15:31:51;29.73;;;15.00;;
12334;SDS011;6233;51.560;9.986;2022-12-01T15:34:55;26.60;;;14.77;;
12334;SDS011;6233;51.560;9.986;2022-12-01T15:38:01;25.23;;;15.70;;
12334;SDS011;6233;51.560;9.986;2022-12-01T15:41:04;27.37;;;15.73;;
12334;SDS011;6233;51.560;9.986;2022-12-01T15:44:33;28.70;;;17.20;;
12334;SDS011;6233;51.560;9.986;2022-12-01T15:47:46;27.87;;;16.00;;
12334;SDS011;6233;51.560;9.986;2022-12-01T15:51:12;32.90;;;17.23;;
12334;SDS011;6233;51.560;9.986;2022-12-01T15:54:21;32.50;;;17.63;;
12334;SDS011;6233;51.560;9.986;2022-12-01T15:57:28;32.00;;;16.97;;
12334;SDS011;6233;51.560;9.986;2022-12-01T16:00:30;31.43;;;17.27;;
12334;SDS011;6233;51.560;9.986;2022-12-01T16:03:45;29.27;;;17.50;;
12334;SDS011;6233;51.560;9.986;2022-12-01T16:06:58;31.80;;;17.63;;
12334;SDS011;6233;51.560;9.986;2022-12-01T16:10:03;33.90;;;17.40;;
12334;SDS011;6233;51.560;9.986;2022-12-01T16:19:47;32.30;;;18.30;;
12334;SDS011;6233;51.560;9.986;2022-12-01T16:22:56;28.67;;;16.63;;
12334;SDS011;6233;51.560;9.986;2022-12-01T16:26:06;32.07;;;17.07;;
12334;SDS011;6233;51.560;9.986;2022-12-01T16:29:18;32.17;;;18.50;;
12334;SDS011;6233;51.560;9.986;2022-12-01T16:35:31;37.13;;;19.47;;
12334;SDS011;6233;51.560;9.986;2022-12-01T16:38:34;35.17;;;19.27;;
12334;SDS011;6233;51.560;9.986;2022-12-01T16:41:35;38.03;;;19.33;;
12334;SDS011;6233;51.560;9.986;2022-12-01T16:44:44;37.63;;;19.73;;
12334;SDS011;6233;51.560;9.986;2022-12-01T16:47:47;38.87;;;19.17;;
12334;SDS011;6233;51.560;9.986;2022-12-01T16:50:49;41.87;;;21.63;;
12334;SDS011;6233;51.560;9.986;2022-12-01T16:53:52;38.90;;;21.27;;
12334;SDS011;6233;51.560;9.986;2022-12-01T16:56:53;33.73;;;18.83;;
12334;SDS011;6233;51.560;9.986;2022-12-01T16:59:55;39.83;;;19.77;;
12334;SDS011;6233;51.560;9.986;2022-12-01T17:02:56;37.60;;;19.77;;
12334;SDS011;6233;51.560;9.986;2022-12-01T17:05:59;39.60;;;19.97;;
12334;SDS011;6233;51.560;9.986;2022-12-01T17:09:01;31.97;;;18.93;;
12334;SDS011;6233;51.560;9.986;2022-12-01T17:12:03;34.07;;;19.17;;
12334;SDS011;6233;51.560;9.986;2022-12-01T17:15:06;33.40;;;18.80;;
12334;SDS011;6233;51.560;9.986;2022-12-01T17:18:08;37.77;;;19.60;;
12334;SDS011;6233;51.560;9.986;2022-12-01T17:21:10;36.13;;;20.43;;
12334;SDS011;6233;51.560;9.986;2022-12-01T17:24:12;36.60;;;19.90;;
12334;SDS011;6233;51.560;9.986;2022-12-01T17:27:19;37.27;;;20.97;;
12334;SDS011;6233;51.560;9.986;2022-12-01T17:30:21;35.77;;;20.00;;
12334;SDS011;6233;51.560;9.986;2022-12-01T17:33:23;34.83;;;19.13;;
12334;SDS011;6233;51.560;9.986;2022-12-01T17:36:27;33.67;;;19.20;;
12334;SDS011;6233;51.560;9.986;2022-12-01T17:39:29;34.43;;;18.87;;
12334;SDS011;6233;51.560;9.986;2022-12-01T17:42:31;37.67;;;20.13;;
12334;SDS011;6233;51.560;9.986;2022-12-01T17:45:33;38.40;;;19.60;;
12334;SDS011;6233;51.560;9.986;2022-12-01T17:48:36;33.80;;;17.93;;
12334;SDS011;6233;51.560;9.986;2022-12-01T17:51:39;36.50;;;19.30;;
12334;SDS011;6233;51.560;9.986;2022-12-01T17:54:42;33.27;;;18.90;;
12334;SDS011;6233;51.560;9.986;2022-12-01T17:57:44;35.53;;;19.87;;
12334;SDS011;6233;51.560;9.986;2022-12-01T18:00:46;38.53;;;20.80;;
12334;SDS011;6233;51.560;9.986;2022-12-01T18:03:50;36.47;;;19.77;;
12334;SDS011;6233;51.560;9.986;2022-12-01T18:06:52;40.60;;;20.73;;
12334;SDS011;6233;51.560;9.986;2022-12-01T18:09:55;40.90;;;20.23;;
12334;SDS011;6233;51.560;9.986;2022-12-01T18:12:56;40.70;;;21.17;;
12334;SDS011;6233;51.560;9.986;2022-12-01T18:15:58;38.33;;;19.57;;
12334;SDS011;6233;51.560;9.986;2022-12-01T18:19:00;40.40;;;19.97;;
12334;SDS011;6233;51.560;9.986;2022-12-01T18:22:02;34.60;;;18.53;;
12334;SDS011;6233;51.560;9.986;2022-12-01T18:25:04;37.07;;;18.70;;
12334;SDS011;6233;51.560;9.986;2022-12-01T18:28:06;41.53;;;19.77;;
12334;SDS011;6233;51.560;9.986;2022-12-01T18:31:11;33.83;;;17.20;;
12334;SDS011;6233;51.560;9.986;2022-12-01T18:34:15;38.30;;;18.47;;
12334;SDS011;6233;51.560;9.986;2022-12-01T18:37:16;35.03;;;18.87;;
12334;SDS011;6233;51.560;9.986;2022-12-01T18:40:18;32.10;;;18.10;;
12334;SDS011;6233;51.560;9.986;2022-12-01T18:43:20;32.37;;;18.00;;
12334;SDS011;6233;51.560;9.986;2022-12-01T18:46:22;31.87;;;17.63;;
12334;SDS011;6233;51.560;9.986;2022-12-01T18:49:24;35.43;;;17.93;;
12334;SDS011;6233;51.560;9.986;2022-12-01T18:52:25;30.87;;;16.93;;
12334;SDS011;6233;51.560;9.986;2022-12-01T18:55:27;29.17;;;16.57;;
12334;SDS011;6233;51.560;9.986;2022-12-01T18:58:29;27.17;;;16.13;;
12334;SDS011;6233;51.560;9.986;2022-12-01T19:01:36;31.03;;;15.60;;
12334;SDS011;6233;51.560;9.986;2022-12-01T19:04:40;29.73;;;15.90;;
12334;SDS011;6233;51.560;9.986;2022-12-01T19:07:42;28.77;;;16.37;;
12334;SDS011;6233;51.560;9.986;2022-12-01T19:10:43;32.60;;;17.17;;
12334;SDS011;6233;51.560;9.986;2022-12-01T19:13:45;27.80;;;16.03;;
12334;SDS011;6233;51.560;9.986;2022-12-01T19:16:47;29.90;;;16.33;;
12334;SDS011;6233;51.560;9.986;2022-12-01T19:19:51;26.43;;;15.97;;
12334;SDS011;6233;51.560;9.986;2022-12-01T19:22:55;24.27;;;14.07;;
12334;SDS011;6233;51.560;9.986;2022-12-01T19:25:57;27.93;;;15.93;;
12334;SDS011;6233;51.560;9.986;2022-12-01T19:29:02;28.13;;;15.83;;
12334;SDS011;6233;51.560;9.986;2022-12-01T19:32:04;30.93;;;16.70;;
12334;SDS011;6233;51.560;9.986;2022-12-01T19:35:06;28.77;;;15.93;;
12334;SDS011;6233;51.560;9.986;2022-12-01T19:38:08;28.33;;;15.53;;
12334;SDS011;6233;51.560;9.986;2022-12-01T19:41:10;28.07;;;15.43;;
12334;SDS011;6233;51.560;9.986;2022-12-01T19:44:13;28.50;;;16.17;;
12334;SDS011;6233;51.560;9.986;2022-12-01T19:47:15;29.93;;;17.33;;
12334;SDS011;6233;51.560;9.986;2022-12-01T19:50:22;33.47;;;18.33;;
12334;SDS011;6233;51.560;9.986;2022-12-01T19:53:24;29.80;;;16.17;;
12334;SDS011;6233;51.560;9.986;2022-12-01T19:56:36;30.10;;;16.07;;
12334;SDS011;6233;51.560;9.986;2022-12-01T19:59:38;30.53;;;16.67;;
12334;SDS011;6233;51.560;9.986;2022-12-01T20:02:40;25.83;;;14.67;;